createdAt,value
2022-10-06T00:02:59.907Z,4.85
2022-10-06T00:08:03.269Z,3.95
2022-10-06T00:13:05.732Z,4.53
2022-10-06T00:18:08.268Z,3.83
2022-10-06T00:23:11.202Z,3.95
2022-10-06T00:28:14.252Z,4.53
2022-10-06T00:33:17.858Z,4.10
2022-10-06T00:38:20.600Z,4.63
2022-10-06T00:43:51.217Z,4.93
2022-10-06T00:49:16.694Z,4.78
2022-10-06T00:54:19.367Z,4.87
2022-10-06T00:59:21.821Z,4.97
2022-10-06T01:04:24.748Z,5.60
2022-10-06T01:09:27.772Z,4.05
2022-10-06T01:14:30.390Z,5.20
2022-10-06T01:19:55.227Z,4.60
2022-10-06T01:24:58.379Z,4.25
2022-10-06T01:30:01.194Z,4.00
2022-10-06T01:35:04.320Z,4.43
2022-10-06T01:40:07.539Z,3.70
2022-10-06T01:45:10.489Z,3.40
2022-10-06T01:50:12.933Z,3.90
2022-10-06T01:55:15.790Z,4.03
2022-10-06T02:00:19.366Z,3.50
2022-10-06T02:05:21.900Z,4.13
2022-10-06T02:10:24.691Z,4.88
2022-10-06T02:15:27.372Z,4.82
2022-10-06T02:20:29.780Z,4.60
2022-10-06T02:25:32.239Z,3.75
2022-10-06T02:30:34.676Z,4.60
2022-10-06T02:35:37.098Z,4.72
2022-10-06T02:40:39.714Z,4.25
2022-10-06T02:45:43.292Z,4.27
2022-10-06T02:50:45.838Z,4.30
2022-10-06T02:55:48.290Z,4.03
2022-10-06T03:00:50.704Z,4.07
2022-10-06T03:06:06.806Z,4.18
2022-10-06T03:11:10.116Z,4.07
2022-10-06T03:16:23.610Z,3.88
2022-10-06T03:21:31.416Z,3.58
2022-10-06T03:26:37.741Z,3.40
2022-10-06T03:31:40.555Z,2.88
2022-10-06T03:36:44.169Z,1.10
2022-10-06T03:41:46.835Z,2.83
2022-10-06T03:46:49.592Z,3.20
2022-10-06T03:51:53.686Z,1.40
2022-10-06T03:56:56.151Z,2.15
2022-10-06T04:01:58.618Z,1.97
2022-10-06T04:07:01.134Z,4.13
2022-10-06T04:12:03.681Z,3.88
2022-10-06T04:17:06.180Z,4.18
2022-10-06T04:22:08.709Z,2.92
2022-10-06T04:27:29.211Z,4.13
2022-10-06T04:32:32.364Z,2.80
2022-10-06T04:37:34.798Z,3.88
2022-10-06T04:42:37.762Z,4.95
2022-10-06T04:47:40.271Z,1.90
2022-10-06T04:52:42.688Z,2.40
2022-10-06T04:57:45.218Z,3.20
2022-10-06T05:02:47.667Z,2.70
2022-10-06T05:07:50.157Z,3.60
2022-10-06T05:12:54.217Z,3.13
2022-10-06T05:17:56.753Z,4.27
2022-10-06T05:22:59.228Z,2.80
2022-10-06T05:28:01.692Z,3.28
2022-10-06T05:33:04.232Z,4.47
2022-10-06T05:38:09.779Z,4.30
2022-10-06T05:43:12.264Z,5.27
2022-10-06T05:48:14.748Z,5.97
2022-10-06T05:53:17.273Z,5.93
2022-10-06T05:58:19.993Z,6.97
2022-10-06T06:03:22.440Z,5.68
2022-10-06T06:08:24.903Z,6.40
2022-10-06T06:13:27.336Z,5.78
2022-10-06T06:18:37.147Z,5.40
2022-10-06T06:23:46.456Z,4.77
2022-10-06T06:28:51.206Z,5.15
2022-10-06T06:33:56.475Z,6.07
2022-10-06T06:38:59.293Z,6.38
2022-10-06T06:44:01.975Z,5.82
2022-10-06T06:49:05.301Z,4.33
2022-10-06T06:54:10.267Z,4.13
2022-10-06T06:59:13.628Z,5.67
2022-10-06T07:04:17.255Z,4.38
2022-10-06T07:09:20.941Z,5.82
2022-10-06T07:14:24.481Z,4.07
2022-10-06T07:19:45.307Z,4.25
2022-10-06T07:25:06.642Z,4.50
2022-10-06T07:30:11.583Z,4.15
2022-10-06T07:35:15.567Z,4.28
2022-10-06T07:40:18.739Z,3.90
2022-10-06T07:45:38.534Z,3.80
2022-10-06T07:50:42.594Z,4.33
2022-10-06T07:55:49.751Z,3.75
2022-10-06T08:00:53.188Z,3.80
2022-10-06T08:06:01.121Z,4.73
2022-10-06T08:11:04.657Z,4.70
2022-10-06T08:16:12.368Z,5.95
2022-10-06T08:21:21.962Z,4.20
2022-10-06T08:26:26.880Z,3.92
2022-10-06T08:31:30.527Z,3.87
2022-10-06T08:36:33.026Z,3.90
2022-10-06T08:41:48.716Z,4.22
2022-10-06T08:46:56.944Z,4.33
2022-10-06T08:52:20.620Z,3.83
2022-10-06T08:58:07.917Z,4.33
2022-10-06T09:03:24.174Z,3.60
2022-10-06T09:08:32.602Z,3.60
2022-10-06T09:13:56.462Z,3.93
2022-10-06T09:19:15.769Z,3.72
2022-10-06T09:24:30.151Z,3.35
2022-10-06T09:29:32.598Z,3.40
2022-10-06T09:34:42.957Z,2.90
2022-10-06T09:39:49.494Z,3.77
2022-10-06T09:44:53.167Z,2.87
2022-10-06T09:50:15.905Z,2.92
2022-10-06T09:55:20.102Z,3.40
2022-10-06T10:00:46.789Z,2.47
2022-10-06T10:05:57.052Z,2.50
2022-10-06T10:11:28.567Z,2.53
2022-10-06T10:16:35.899Z,2.40
2022-10-06T10:21:38.709Z,2.25
2022-10-06T10:26:54.556Z,2.43
2022-10-06T10:32:08.391Z,2.40
2022-10-06T10:37:21.983Z,2.67
2022-10-06T10:42:24.489Z,1.90
2022-10-06T10:47:30.848Z,2.80
2022-10-06T10:52:38.191Z,2.38
2022-10-06T10:57:42.084Z,2.50
2022-10-06T11:02:44.763Z,2.40
2022-10-06T11:08:04.944Z,2.50
2022-10-06T11:13:27.405Z,2.40
2022-10-06T11:18:45.273Z,2.30
2022-10-06T11:24:13.169Z,2.60
2022-10-06T11:29:28.218Z,2.50
2022-10-06T11:34:30.745Z,2.77
2022-10-06T11:39:54.468Z,2.80
2022-10-06T11:45:16.062Z,4.20
2022-10-06T11:50:49.240Z,2.13
2022-10-06T11:56:17.625Z,2.17
2022-10-06T12:01:32.442Z,2.10
2022-10-06T12:06:44.556Z,2.17
2022-10-06T12:11:47.349Z,2.53
2022-10-06T12:17:14.077Z,2.40
2022-10-06T12:22:47.434Z,1.63
2022-10-06T12:28:16.327Z,2.03
2022-10-06T12:33:36.240Z,2.10
2022-10-06T12:38:44.212Z,1.92
2022-10-06T12:43:54.743Z,1.90
2022-10-06T12:49:09.220Z,1.63
2022-10-06T12:54:21.591Z,2.22
2022-10-06T12:59:26.642Z,1.83
2022-10-06T13:04:52.062Z,2.05
2022-10-06T13:10:14.610Z,1.60
2022-10-06T13:15:17.117Z,1.87
2022-10-06T13:20:22.867Z,2.53
2022-10-06T13:25:26.006Z,4.60
2022-10-06T13:30:29.046Z,2.23
2022-10-06T13:35:32.347Z,2.30
2022-10-06T13:40:50.412Z,2.22
2022-10-06T13:45:54.060Z,2.23
2022-10-06T13:50:56.590Z,2.20
2022-10-06T13:56:01.142Z,2.30
2022-10-06T14:01:05.636Z,2.00
2022-10-06T14:06:26.388Z,1.83
2022-10-06T14:11:30.137Z,1.80
2022-10-06T14:16:32.796Z,1.95
2022-10-06T14:21:41.977Z,2.13
2022-10-06T14:26:46.535Z,1.67
2022-10-06T14:31:49.530Z,2.08
2022-10-06T14:36:52.536Z,1.80
2022-10-06T14:41:57.153Z,2.33
2022-10-06T14:46:59.617Z,1.92
2022-10-06T14:52:02.327Z,2.50
2022-10-06T14:57:05.180Z,2.13
2022-10-06T15:02:08.780Z,1.90
2022-10-06T15:07:39.090Z,2.40
2022-10-06T15:12:41.576Z,2.20
2022-10-06T15:17:44.059Z,2.70
2022-10-06T15:22:48.053Z,2.77
2022-10-06T15:28:08.978Z,2.67
2022-10-06T15:33:11.457Z,2.53
2022-10-06T15:38:14.141Z,3.43
2022-10-06T15:43:39.271Z,3.33
2022-10-06T15:48:43.189Z,3.75
2022-10-06T15:53:46.146Z,3.77
2022-10-06T15:58:48.848Z,2.60
2022-10-06T16:04:00.906Z,2.97
2022-10-06T16:09:03.544Z,3.00
2022-10-06T16:14:07.333Z,3.75
2022-10-06T16:19:12.550Z,3.15
2022-10-06T16:24:18.127Z,3.53
2022-10-06T16:29:21.581Z,4.68
2022-10-06T16:34:25.480Z,4.13
2022-10-06T16:39:28.079Z,4.70
2022-10-06T16:44:34.485Z,5.85
2022-10-06T16:49:36.963Z,7.57
2022-10-06T16:54:39.424Z,8.88
2022-10-06T16:59:46.495Z,8.75
2022-10-06T17:04:49.448Z,9.70
2022-10-06T17:10:18.506Z,10.90
2022-10-06T17:15:14.366Z,10.53
2022-10-06T17:20:16.943Z,8.93
2022-10-06T17:25:19.407Z,9.13
2022-10-06T17:30:21.834Z,9.63
2022-10-06T17:35:24.312Z,18.98
2022-10-06T17:40:27.087Z,22.50
2022-10-06T17:45:29.537Z,11.17
2022-10-06T17:50:32.404Z,9.32
2022-10-06T17:55:36.838Z,14.02
2022-10-06T18:00:39.283Z,8.70
2022-10-06T18:05:41.761Z,11.10
2022-10-06T18:11:06.745Z,12.77
2022-10-06T18:16:19.136Z,13.00
2022-10-06T18:21:24.071Z,9.38
2022-10-06T18:26:26.535Z,10.33
2022-10-06T18:31:29.667Z,9.38
2022-10-06T18:36:32.308Z,9.40
2022-10-06T18:41:36.710Z,9.95
2022-10-06T18:46:57.587Z,8.68
2022-10-06T18:52:01.714Z,11.37
2022-10-06T18:57:04.198Z,10.02
2022-10-06T19:02:07.051Z,8.03
2022-10-06T19:07:09.822Z,7.15
2022-10-06T19:12:12.287Z,7.45
2022-10-06T19:17:15.588Z,6.97
2022-10-06T19:22:19.729Z,7.03
2022-10-06T19:27:26.274Z,7.60
2022-10-06T19:32:33.895Z,7.68
2022-10-06T19:37:36.371Z,9.13
2022-10-06T19:42:48.116Z,7.30
2022-10-06T19:47:51.438Z,7.68
2022-10-06T19:52:54.014Z,7.20
2022-10-06T19:57:56.696Z,7.53
2022-10-06T20:02:59.252Z,7.15
2022-10-06T20:08:01.957Z,7.80
2022-10-06T20:13:05.976Z,9.52
2022-10-06T20:18:08.485Z,7.83
2022-10-06T20:23:10.923Z,7.18
2022-10-06T20:28:13.387Z,7.70
2022-10-06T20:33:16.712Z,8.13
2022-10-06T20:38:39.135Z,8.48
2022-10-06T20:43:43.212Z,6.57
2022-10-06T20:48:45.637Z,8.68
2022-10-06T20:53:48.144Z,7.03
2022-10-06T20:58:50.587Z,7.47
2022-10-06T21:03:54.914Z,7.60
2022-10-06T21:08:58.626Z,7.37
2022-10-06T21:14:01.975Z,9.48
2022-10-06T21:19:08.117Z,7.80
2022-10-06T21:24:10.850Z,8.70
2022-10-06T21:29:15.647Z,9.43
2022-10-06T21:34:18.429Z,9.67
2022-10-06T21:39:20.960Z,10.95
2022-10-06T21:44:23.484Z,11.82
2022-10-06T21:49:28.238Z,10.77
2022-10-06T21:54:30.859Z,11.65
2022-10-06T21:59:33.258Z,13.17
2022-10-06T22:04:35.692Z,13.30
2022-10-06T22:09:38.098Z,12.35
2022-10-06T22:14:40.547Z,12.83
2022-10-06T22:19:43.027Z,11.35
2022-10-06T22:24:52.234Z,14.97
2022-10-06T22:29:54.639Z,13.23
2022-10-06T22:34:57.491Z,9.55
2022-10-06T22:40:04.129Z,9.77
2022-10-06T22:45:10.951Z,10.00
2022-10-06T22:55:43.462Z,8.63
2022-10-06T23:00:46.494Z,4.80
2022-10-06T23:06:00.592Z,6.50
2022-10-06T23:11:07.110Z,6.80
2022-10-06T23:16:11.539Z,7.13
2022-10-06T23:21:21.682Z,6.07
2022-10-06T23:26:27.975Z,6.68
2022-10-06T23:31:30.508Z,7.53
2022-10-06T23:36:32.986Z,7.90
2022-10-06T23:41:35.536Z,6.43
2022-10-06T23:46:37.986Z,7.25
2022-10-06T23:51:40.442Z,6.30
2022-10-06T23:56:42.892Z,6.87
